Terminal Aerodrome Forecast
Issued by NWS

Home | Current Version | Previous Version | Text Only | Print | Product List | Glossary On
Versions: 1 2 3 4 5 6 7 8 9 10 11 12 13 14 15 16 17 18 19 20 21 22 23 24 25 26
000
FTUS45 KBOU 200757 AAB
TAFAPA
TAF AMD
KAPA 200757Z 2008/2106 23009KT P6SM VCSH SCT060 BKN100
     FM200900 18007KT P6SM SCT100 SCT140
     FM201600 26007KT P6SM SCT140 BKN200
     FM201900 34010KT P6SM SCT100 SCT140
     FM202100 01012KT P6SM SCT080 BKN140
     FM210200 18009KT P6SM FEW140 SCT220=

USA.gov is the U.S. government's official web portal to all federal, state and local government web resources and services.